Time;durP1;ratioP1;P1;durP2;ratioP2;P2;SDS_P1;SDS_P2;PMS_P1;PMS_P2;Temp;Humidity;BMP_temperature;BMP_pressure;BME280_temperature;BME280_humidity;BME280_pressure;Samples;Min_cycle;Max_cycle;Signal;HPM_P1;HPM_P2
2023/10/28 00:00:58;;;;;;;1.00;1.00;;;;;;;-1.92;100.00;97630.63;4789069;30;20524;-82
2023/10/28 00:03:26;;;;;;;0.93;0.93;;;;;;;-1.91;100.00;97630.47;4789333;30;20143;-81
2023/10/28 00:05:54;;;;;;;0.90;0.90;;;;;;;-1.88;100.00;97627.41;4788819;30;20530;-83
2023/10/28 00:08:21;;;;;;;1.00;1.00;;;;;;;-1.96;100.00;97617.81;4789109;30;20054;-82
2023/10/28 00:10:48;;;;;;;1.10;1.10;;;;;;;-1.94;100.00;97619.47;4788864;30;20572;-81
2023/10/28 00:13:15;;;;;;;0.80;0.80;;;;;;;-1.93;100.00;97615.81;4789272;30;20142;-82
2023/10/28 00:15:43;;;;;;;0.90;0.90;;;;;;;-1.90;100.00;97616.25;4788705;30;20530;-82
2023/10/28 00:18:11;;;;;;;1.00;1.00;;;;;;;-1.87;100.00;97621.13;4789161;30;20146;-82
2023/10/28 00:20:38;;;;;;;0.90;0.90;;;;;;;-1.88;100.00;97610.72;4788701;30;20055;-82
2023/10/28 00:23:06;;;;;;;0.95;0.95;;;;;;;-1.86;100.00;97612.16;4789501;30;20055;-82
2023/10/28 00:25:34;;;;;;;0.93;0.93;;;;;;;-1.85;100.00;97608.53;4789664;30;20051;-82
2023/10/28 00:28:03;;;;;;;0.90;0.90;;;;;;;-1.80;100.00;97605.25;4773484;30;20083;-82
2023/10/28 00:30:31;;;;;;;1.00;1.00;;;;;;;-1.81;100.00;97604.44;4772891;30;20106;-81
2023/10/28 00:32:59;;;;;;;0.90;0.90;;;;;;;-1.82;100.00;97613.41;4788829;30;20071;-82
2023/10/28 00:35:28;;;;;;;0.85;0.85;;;;;;;-1.84;100.00;97609.34;4788530;30;20408;-82
2023/10/28 00:37:56;;;;;;;1.00;1.00;;;;;;;-1.81;100.00;97615.03;4788231;30;20055;-82
2023/10/28 00:40:29;;;;;;;0.77;0.77;;;;;;;-1.83;100.00;97618.88;4788614;30;20092;-81
2023/10/28 00:42:58;;;;;;;1.00;1.00;;;;;;;-1.82;100.00;97618.69;4757465;30;20509;-81
2023/10/28 00:45:27;;;;;;;1.08;1.08;;;;;;;-1.80;100.00;97608.75;4788471;29;20408;-81
2023/10/28 00:47:56;;;;;;;1.00;1.00;;;;;;;-1.76;100.00;97614.44;4788480;30;20452;-80
2023/10/28 00:50:23;;;;;;;0.90;0.90;;;;;;;-1.79;100.00;97606.91;4788836;30;20055;-82
2023/10/28 00:52:54;;;;;;;1.10;1.10;;;;;;;-1.72;100.00;97602.44;4757565;30;20055;-83
2023/10/28 00:55:26;;;;;;;1.00;1.00;;;;;;;-1.72;100.00;97602.44;4787082;30;20055;-82
2023/10/28 00:57:53;;;;;;;1.10;1.10;;;;;;;-1.70;100.00;97589.00;4771931;30;20062;-82
2023/10/28 01:00:20;;;;;;;0.95;0.95;;;;;;;-1.70;100.00;97591.66;4788167;30;20051;-83
2023/10/28 01:02:49;;;;;;;1.00;1.00;;;;;;;-1.73;100.00;97589.41;4787757;30;20067;-81
2023/10/28 01:05:17;;;;;;;0.90;0.90;;;;;;;-1.71;100.00;97593.47;4772373;30;20093;-81
2023/10/28 01:07:46;;;;;;;0.90;0.90;;;;;;;-1.71;100.00;97592.69;4785779;29;20062;-82
2023/10/28 01:10:30;;;;;;;1.10;1.10;;;;;;;-1.71;100.00;97596.13;4771933;30;20491;-81
2023/10/28 01:13:01;;;;;;;1.10;1.10;;;;;;;-1.78;100.00;97593.47;4788088;30;20055;-81
2023/10/28 01:15:29;;;;;;;0.75;0.75;;;;;;;-1.76;100.00;97590.63;4772998;30;20063;-83
2023/10/28 01:17:57;;;;;;;1.10;1.10;;;;;;;-1.81;100.00;97580.63;4788143;30;20066;-81
2023/10/28 01:20:25;;;;;;;1.00;1.00;;;;;;;-1.77;100.00;97583.72;4772396;30;20158;-82
2023/10/28 01:22:52;;;;;;;1.00;1.00;;;;;;;-1.72;100.00;97585.75;4771942;30;20058;-82
2023/10/28 01:25:20;;;;;;;1.00;1.00;;;;;;;-1.77;100.00;97587.16;4787695;30;20512;-82
2023/10/28 01:27:48;;;;;;;1.10;1.10;;;;;;;-1.77;100.00;97587.16;4787724;30;20508;-83
2023/10/28 01:30:16;;;;;;;1.00;1.00;;;;;;;-1.82;100.00;97581.66;4788087;30;20059;-82
2023/10/28 01:32:47;;;;;;;0.90;0.90;;;;;;;-1.84;100.00;97588.97;4787339;30;20055;-83
2023/10/28 01:35:16;;;;;;;1.10;1.10;;;;;;;-1.83;100.00;97581.84;4771175;30;20055;-81
2023/10/28 01:37:44;;;;;;;1.00;1.00;;;;;;;-1.82;100.00;97578.22;4787592;30;20069;-81
2023/10/28 01:40:14;;;;;;;0.93;0.93;;;;;;;-1.83;100.00;97571.28;4771957;30;20317;-82
2023/10/28 01:42:45;;;;;;;1.05;1.05;;;;;;;-1.80;100.00;97576.16;4787272;30;20062;-83
2023/10/28 01:45:17;;;;;;;1.02;1.02;;;;;;;-1.76;100.00;97574.75;4787360;30;20071;-82
2023/10/28 01:47:45;;;;;;;0.95;0.95;;;;;;;-1.79;100.00;97572.53;4786950;30;20152;-82
2023/10/28 01:50:12;;;;;;;0.98;0.98;;;;;;;-1.78;100.00;97572.31;4787401;30;20059;-80
2023/10/28 01:52:42;;;;;;;1.00;1.00;;;;;;;-1.80;100.00;97563.78;4787246;30;20124;-83
2023/10/28 01:55:11;;;;;;;1.00;1.00;;;;;;;-1.82;100.00;97560.50;4786103;30;20051;-82
2023/10/28 01:57:40;;;;;;;1.10;1.10;;;;;;;-1.81;100.00;97561.31;4787046;30;20087;-83
2023/10/28 02:00:12;;;;;;;1.00;1.00;;;;;;;-1.82;100.00;97552.56;4771815;30;20147;-83
2023/10/28 02:02:45;;;;;;;1.00;1.00;;;;;;;-1.85;100.00;97563.56;4787305;30;20134;-81
2023/10/28 02:05:15;;;;;;;1.00;1.00;;;;;;;-1.89;100.00;97557.03;4787152;30;20395;-81
2023/10/28 02:07:43;;;;;;;1.00;1.00;;;;;;;-1.88;100.00;97563.94;4787134;30;20071;-82
2023/10/28 02:10:11;;;;;;;1.00;1.00;;;;;;;-1.88;100.00;97558.66;4770992;30;20053;-80
2023/10/28 02:12:40;;;;;;;1.10;1.10;;;;;;;-1.87;100.00;97552.38;4786874;30;20102;-82
2023/10/28 02:15:08;;;;;;;1.00;1.00;;;;;;;-1.88;100.00;97540.13;4770793;30;20594;-81
2023/10/28 02:17:38;;;;;;;1.10;1.10;;;;;;;-1.85;100.00;97537.13;4771156;30;20055;-82
2023/10/28 02:20:28;;;;;;;0.90;0.90;;;;;;;-1.81;100.00;97534.88;4773548;30;20120;-81
2023/10/28 02:22:55;;;;;;;1.00;1.00;;;;;;;-1.84;100.00;97530.00;4756684;30;20055;-81
2023/10/28 02:25:23;;;;;;;0.90;0.90;;;;;;;-1.84;100.00;97530.00;4770462;30;20082;-81
2023/10/28 02:27:51;;;;;;;1.00;1.00;;;;;;;-1.85;100.00;97529.19;4786717;30;20062;-81
2023/10/28 02:30:19;;;;;;;0.90;0.90;;;;;;;-1.83;100.00;97537.69;4785600;30;20166;-81
2023/10/28 02:32:46;;;;;;;1.00;1.00;;;;;;;-1.82;100.00;97534.06;4770535;30;20074;-82
2023/10/28 02:35:16;;;;;;;1.10;1.10;;;;;;;-1.81;100.00;97540.97;4774920;29;20053;-82
2023/10/28 02:37:43;;;;;;;1.00;1.00;;;;;;;-1.80;100.00;97547.91;4804443;29;20063;-82
2023/10/28 02:40:10;;;;;;;1.00;1.00;;;;;;;-1.78;100.00;97545.03;4788554;29;20149;-82
2023/10/28 02:42:40;;;;;;;1.10;1.10;;;;;;;-1.85;100.00;97539.75;4773878;29;20506;-81
2023/10/28 02:45:09;;;;;;;1.00;1.00;;;;;;;-1.82;100.00;97534.06;4803104;29;20063;-82
2023/10/28 02:47:37;;;;;;;1.10;1.10;;;;;;;-1.78;100.00;97542.41;4804306;29;20404;-82
2023/10/28 02:50:04;;;;;;;1.10;1.10;;;;;;;-1.75;100.00;97539.34;4803170;29;20142;-82
2023/10/28 02:52:32;;;;;;;0.93;0.93;;;;;;;-1.75;100.00;97526.97;4788451;29;20137;-81
2023/10/28 02:54:59;;;;;;;0.98;0.98;;;;;;;-1.72;100.00;97531.03;4787930;29;20515;-81
2023/10/28 02:57:30;;;;;;;1.10;1.10;;;;;;;-1.69;100.00;97530.63;4774240;29;20082;-82
2023/10/28 02:59:58;;;;;;;1.10;1.10;;;;;;;-1.70;100.00;97523.69;4773122;29;20065;-81
2023/10/28 03:02:25;;;;;;;1.00;1.00;;;;;;;-1.72;100.00;97517.81;4785103;29;20055;-81
2023/10/28 03:04:52;;;;;;;1.10;1.10;;;;;;;-1.72;100.00;97519.59;4770031;30;20047;-82
2023/10/28 03:07:19;;;;;;;0.90;0.90;;;;;;;-1.72;100.00;97514.31;4755487;30;20061;-82
2023/10/28 03:09:47;;;;;;;1.00;1.00;;;;;;;-1.72;100.00;97511.69;4769974;30;20058;-82
2023/10/28 03:12:15;;;;;;;1.00;1.00;;;;;;;-1.69;100.00;97509.47;4786020;30;20508;-83
2023/10/28 03:14:42;;;;;;;1.00;1.00;;;;;;;-1.72;100.00;97501.94;4785892;30;20150;-81
2023/10/28 03:17:10;;;;;;;0.93;0.93;;;;;;;-1.70;100.00;97493.78;4769826;30;20055;-82
2023/10/28 03:19:37;;;;;;;0.82;0.82;;;;;;;-1.70;100.00;97489.28;4786751;30;20531;-83
2023/10/28 03:22:04;;;;;;;0.93;0.93;;;;;;;-1.70;100.00;97484.00;4785866;30;20193;-82
2023/10/28 03:24:31;;;;;;;1.00;1.00;;;;;;;-1.71;100.00;97476.28;4786233;30;20055;-83
2023/10/28 03:26:58;;;;;;;0.98;0.98;;;;;;;-1.73;100.00;97478.31;4769554;30;20570;-84
2023/10/28 03:29:26;;;;;;;1.00;1.00;;;;;;;-1.74;100.00;97477.50;4785969;29;20119;-83
2023/10/28 03:31:53;;;;;;;0.80;0.80;;;;;;;-1.73;100.00;97473.84;4788905;30;20055;-83
2023/10/28 03:34:20;;;;;;;1.02;1.02;;;;;;;-1.73;100.00;97475.66;4759299;30;20063;-82
2023/10/28 03:36:47;;;;;;;1.00;1.00;;;;;;;-1.73;100.00;97468.53;4789294;30;20560;-84
2023/10/28 03:39:15;;;;;;;0.90;0.90;;;;;;;-1.71;100.00;97458.59;4795187;29;20497;-82
2023/10/28 03:41:43;;;;;;;0.90;0.90;;;;;;;-1.68;100.00;97470.59;4788594;29;20431;-82
2023/10/28 03:44:10;;;;;;;0.82;0.82;;;;;;;-1.69;100.00;97474.25;4792193;29;20047;-83
2023/10/28 03:46:37;;;;;;;1.15;1.15;;;;;;;-1.76;100.00;97461.84;4780858;29;20151;-83
2023/10/28 03:49:04;;;;;;;1.00;1.00;;;;;;;-1.70;100.00;97475.25;4794246;29;20116;-81
2023/10/28 03:51:34;;;;;;;0.88;0.88;;;;;;;-1.75;100.00;97463.47;4797328;29;20051;-82
2023/10/28 03:54:01;;;;;;;1.00;1.00;;;;;;;-1.70;100.00;97462.84;4798479;29;20059;-82
2023/10/28 03:56:29;;;;;;;0.98;0.98;;;;;;;-1.71;100.00;97449.84;4797224;29;20088;-83
2023/10/28 03:58:57;;;;;;;0.88;0.88;;;;;;;-1.71;100.00;97444.56;4781027;29;20403;-83
2023/10/28 04:01:29;;;;;;;0.95;0.95;;;;;;;-1.73;100.00;97449.22;4794508;29;20053;-83
2023/10/28 04:03:56;;;;;;;1.00;1.00;;;;;;;-1.71;100.00;97448.00;4793887;29;20055;-81
2023/10/28 04:06:23;;;;;;;1.00;1.00;;;;;;;-1.69;100.00;97450.47;4789163;30;20061;-81
2023/10/28 04:08:50;;;;;;;1.15;1.15;;;;;;;-1.67;100.00;97443.09;4772950;30;20055;-83
2023/10/28 04:11:17;;;;;;;0.90;0.90;;;;;;;-1.70;100.00;97436.38;4789017;30;20057;-83
2023/10/28 04:13:44;;;;;;;0.90;0.90;;;;;;;-1.69;100.00;97437.22;4788951;30;20055;-83
2023/10/28 04:16:11;;;;;;;1.10;1.10;;;;;;;-1.72;100.00;97430.50;4788711;30;20150;-82
2023/10/28 04:18:39;;;;;;;1.10;1.10;;;;;;;-1.72;100.00;97429.69;4789726;30;20059;-82
2023/10/28 04:21:07;;;;;;;1.10;1.10;;;;;;;-1.68;100.00;97433.56;4793291;29;20620;-80
2023/10/28 04:23:35;;;;;;;1.13;1.13;;;;;;;-1.68;100.00;97433.56;4802092;29;20063;-83
2023/10/28 04:26:03;;;;;;;1.00;1.00;;;;;;;-1.67;100.00;97435.16;4806392;29;20425;-82
2023/10/28 04:28:31;;;;;;;1.10;1.10;;;;;;;-1.67;100.00;97430.72;4790492;29;20084;-82
2023/10/28 04:30:59;;;;;;;1.00;1.00;;;;;;;-1.66;100.00;97429.69;4783490;30;20059;-82
2023/10/28 04:33:26;;;;;;;1.02;1.02;;;;;;;-1.68;100.00;97426.41;4788754;30;20063;-82
2023/10/28 04:35:55;;;;;;;0.90;0.90;;;;;;;-1.64;100.00;97426.84;4788645;30;20066;-82
2023/10/28 04:38:22;;;;;;;0.95;0.95;;;;;;;-1.64;100.00;97430.28;4788616;30;20055;-81
2023/10/28 04:40:50;;;;;;;0.98;0.98;;;;;;;-1.63;100.00;97420.53;4788187;29;20476;-82
2023/10/28 04:43:19;;;;;;;0.90;0.90;;;;;;;-1.62;100.00;97416.84;4788713;30;20062;-81
2023/10/28 04:45:47;;;;;;;0.90;0.90;;;;;;;-1.63;100.00;97413.41;4787776;30;20077;-82
2023/10/28 04:48:16;;;;;;;0.90;0.90;;;;;;;-1.65;100.00;97410.13;4788206;30;20055;-83
2023/10/28 04:50:45;;;;;;;1.10;1.10;;;;;;;-1.64;100.00;97409.13;4788933;29;20070;-82
2023/10/28 04:53:12;;;;;;;0.93;0.93;;;;;;;-1.65;100.00;97396.09;4785855;29;20516;-83
2023/10/28 04:55:41;;;;;;;0.95;0.95;;;;;;;-1.62;100.00;97385.94;4784836;29;20148;-82
2023/10/28 04:58:08;;;;;;;0.98;0.98;;;;;;;-1.56;100.00;97389.59;4778208;30;20051;-82
2023/10/28 05:00:36;;;;;;;0.90;0.90;;;;;;;-1.55;100.00;97386.72;4788118;30;20146;-83
2023/10/28 05:03:03;;;;;;;1.10;1.10;;;;;;;-1.58;100.00;97381.84;4792012;29;20094;-83
2023/10/28 05:05:31;;;;;;;1.00;1.00;;;;;;;-1.58;100.00;97379.19;4780641;29;20056;-83
2023/10/28 05:07:58;;;;;;;1.10;1.10;;;;;;;-1.56;100.00;97384.28;4792134;29;20070;-83
2023/10/28 05:10:25;;;;;;;1.02;1.02;;;;;;;-1.56;100.00;97374.53;4789011;29;20104;-83
2023/10/28 05:12:53;;;;;;;0.88;0.88;;;;;;;-1.54;100.00;97369.03;4775230;29;21949;-82
2023/10/28 05:15:20;;;;;;;1.00;1.00;;;;;;;-1.50;100.00;97364.94;4784714;29;20067;-82
2023/10/28 05:17:47;;;;;;;1.08;1.08;;;;;;;-1.51;100.00;97375.75;4789557;29;20081;-84
2023/10/28 05:20:14;;;;;;;1.08;1.08;;;;;;;-1.52;100.00;97366.97;4796152;29;20051;-83
2023/10/28 05:22:41;;;;;;;1.10;1.10;;;;;;;-1.49;100.00;97369.22;4793488;29;20082;-82
2023/10/28 05:25:09;;;;;;;1.00;1.00;;;;;;;-1.45;100.00;97365.13;4792534;29;20150;-81
2023/10/28 05:27:36;;;;;;;1.00;1.00;;;;;;;-1.45;100.00;97364.31;4795385;29;20066;-81
2023/10/28 05:30:04;;;;;;;1.10;1.10;;;;;;;-1.43;100.00;97362.28;4774665;29;20067;-82
2023/10/28 05:32:35;;;;;;;0.85;0.85;;;;;;;-1.42;100.00;97362.09;4761358;29;20050;-80
2023/10/28 05:35:02;;;;;;;1.02;1.02;;;;;;;-1.35;100.00;97365.50;4787365;29;20050;-86
2023/10/28 05:37:29;;;;;;;0.90;0.90;;;;;;;-1.31;100.00;97358.78;4779216;29;20294;-82
2023/10/28 05:39:56;;;;;;;0.80;0.80;;;;;;;-1.24;100.00;97361.41;4794131;29;20534;-86
2023/10/28 05:42:24;;;;;;;1.10;1.10;;;;;;;-1.20;100.00;97348.56;4789402;29;20633;-84
2023/10/28 05:44:51;;;;;;;1.10;1.10;;;;;;;-1.22;100.00;97342.66;4777346;29;20537;-82
2023/10/28 05:47:18;;;;;;;1.02;1.02;;;;;;;-1.16;100.00;97341.84;4795244;29;20189;-80
2023/10/28 05:49:45;;;;;;;1.02;1.02;;;;;;;-1.16;100.00;97341.84;4783366;29;20061;-79
2023/10/28 05:52:22;;;;;;;1.10;1.10;;;;;;;-1.08;100.00;97338.94;4789672;29;20054;-82
2023/10/28 05:54:49;;;;;;;1.00;1.00;;;;;;;-1.04;100.00;97339.31;4774390;29;20050;-83
2023/10/28 05:57:17;;;;;;;0.90;0.90;;;;;;;-1.12;100.00;97327.13;4794095;29;20141;-81
2023/10/28 05:59:44;;;;;;;1.10;1.10;;;;;;;-1.04;100.00;97336.66;4798750;29;20055;-82
2023/10/28 06:02:13;;;;;;;1.08;1.08;;;;;;;-0.99;100.00;97350.91;4784737;29;20061;-82
2023/10/28 06:04:41;;;;;;;1.10;1.10;;;;;;;-1.06;100.00;97321.00;4784458;29;20058;-82
2023/10/28 06:07:09;;;;;;;1.08;1.08;;;;;;;-0.99;100.00;97324.41;4800478;29;20149;-82
2023/10/28 06:09:36;;;;;;;1.13;1.13;;;;;;;-1.00;100.00;97329.94;4770264;29;20058;-82
2023/10/28 06:12:04;;;;;;;1.10;1.10;;;;;;;-1.05;100.00;97322.63;4799023;29;20086;-82
2023/10/28 06:14:31;;;;;;;1.00;1.00;;;;;;;-1.02;100.00;97326.69;4799365;29;20146;-82
2023/10/28 06:16:58;;;;;;;0.93;0.93;;;;;;;-0.94;100.00;97321.13;4800837;29;20055;-83
2023/10/28 06:19:29;;;;;;;1.10;1.10;;;;;;;-0.95;100.00;97324.81;4801177;29;20059;-80
2023/10/28 06:21:57;;;;;;;1.00;1.00;;;;;;;-0.93;100.00;97314.84;4777172;29;20373;-81
2023/10/28 06:24:24;;;;;;;1.00;1.00;;;;;;;-0.92;100.00;97311.97;4778609;29;20058;-81
2023/10/28 06:26:52;;;;;;;0.90;0.90;;;;;;;-0.87;100.00;97303.38;4800112;29;20146;-80
2023/10/28 06:29:20;;;;;;;0.90;0.90;;;;;;;-0.82;100.00;97305.41;4790289;29;20085;-81
2023/10/28 06:31:47;;;;;;;0.95;0.95;;;;;;;-0.77;100.00;97300.28;4789415;29;20051;-80
2023/10/28 06:34:14;;;;;;;0.90;0.90;;;;;;;-0.80;100.00;97298.84;4774671;29;20070;-83
2023/10/28 06:36:41;;;;;;;1.00;1.00;;;;;;;-0.83;100.00;97291.34;4787514;29;20056;-81
2023/10/28 06:39:09;;;;;;;1.00;1.00;;;;;;;-0.83;100.00;97294.00;4782028;30;20059;-83
2023/10/28 06:41:36;;;;;;;1.10;1.10;;;;;;;-0.82;100.00;97294.78;4769754;30;20055;-82
2023/10/28 06:44:06;;;;;;;1.00;1.00;;;;;;;-0.83;100.00;97287.88;4769865;30;20051;-82
2023/10/28 06:46:33;;;;;;;1.00;1.00;;;;;;;-0.83;100.00;97288.69;4755363;30;20067;-81
2023/10/28 06:49:01;;;;;;;1.02;1.02;;;;;;;-0.83;100.00;97287.88;4797297;29;20124;-82
2023/10/28 06:51:28;;;;;;;1.10;1.10;;;;;;;-0.82;100.00;97297.44;4788711;29;20051;-83
2023/10/28 06:53:55;;;;;;;1.00;1.00;;;;;;;-0.82;100.00;97278.91;4803768;29;20057;-82
2023/10/28 06:56:23;;;;;;;1.00;1.00;;;;;;;-0.80;100.00;97282.97;4788107;29;20591;-82
2023/10/28 06:58:50;;;;;;;0.98;0.98;;;;;;;-0.77;100.00;97276.44;4804059;29;20082;-81
2023/10/28 07:01:18;;;;;;;1.10;1.10;;;;;;;-0.70;100.00;97287.78;4804223;29;20145;-82
2023/10/28 07:03:47;;;;;;;1.10;1.10;;;;;;;-0.68;100.00;97273.31;4787726;29;20515;-82
2023/10/28 07:06:16;;;;;;;0.98;0.98;;;;;;;-0.63;100.00;97277.97;4802229;29;20058;-82
2023/10/28 07:08:48;;;;;;;1.13;1.13;;;;;;;-0.61;100.00;97272.44;4802979;29;20529;-82
2023/10/28 07:11:15;;;;;;;1.10;1.10;;;;;;;-0.64;100.00;97264.94;4804223;29;20523;-82
2023/10/28 07:13:42;;;;;;;1.10;1.10;;;;;;;-0.51;100.00;97270.13;4788435;29;20101;-82
2023/10/28 07:16:17;;;;;;;1.00;1.00;;;;;;;-0.50;100.00;97261.97;4789087;29;20055;-82
2023/10/28 07:18:45;;;;;;;1.00;1.00;;;;;;;-0.47;100.00;97258.06;4788134;29;20142;-81
2023/10/28 07:21:13;;;;;;;0.98;0.98;;;;;;;-0.45;100.00;97251.53;4787782;29;20070;-82
2023/10/28 07:23:41;;;;;;;1.10;1.10;;;;;;;-0.37;100.00;97254.94;4787685;29;20415;-82
2023/10/28 07:26:08;;;;;;;1.00;1.00;;;;;;;-0.33;100.00;97251.63;4787366;29;20500;-82
2023/10/28 07:28:37;;;;;;;1.05;1.05;;;;;;;-0.33;100.00;97246.34;4802584;29;20059;-82
2023/10/28 07:31:05;;;;;;;0.93;0.93;;;;;;;-0.32;100.00;97241.84;4803960;29;20435;-83
2023/10/28 07:33:34;;;;;;;0.98;0.98;;;;;;;-0.24;100.00;97246.84;4803828;29;20137;-82
2023/10/28 07:36:04;;;;;;;0.98;0.98;;;;;;;-0.16;100.00;97237.81;4804213;29;20053;-82
2023/10/28 07:38:31;;;;;;;0.90;0.90;;;;;;;-0.07;100.00;97247.91;4778545;29;20439;-82
2023/10/28 07:41:00;;;;;;;1.20;1.20;;;;;;;-0.06;100.00;97244.22;4778450;29;20159;-83
2023/10/28 07:43:27;;;;;;;1.00;1.00;;;;;;;-0.10;100.00;97235.09;4769805;30;20055;-83
2023/10/28 07:45:57;;;;;;;1.10;1.10;;;;;;;-0.06;100.00;97241.56;4785214;29;20408;-84
2023/10/28 07:48:26;;;;;;;1.00;1.00;;;;;;;-0.14;100.00;97231.25;4786879;29;20408;-84
2023/10/28 07:50:54;;;;;;;0.98;0.98;;;;;;;-0.01;100.00;97241.72;4771302;29;20083;-82
2023/10/28 07:53:21;;;;;;;1.05;1.05;;;;;;;0.01;100.00;97235.41;4785785;29;20062;-83
2023/10/28 07:55:48;;;;;;;1.00;1.00;;;;;;;0.05;100.00;97236.56;4793260;29;20142;-86
2023/10/28 07:58:16;;;;;;;1.00;1.00;;;;;;;0.08;100.00;97244.91;4775249;29;20059;-84
2023/10/28 08:00:43;;;;;;;0.93;0.93;;;;;;;0.11;100.00;97243.66;4775678;29;20066;-83
2023/10/28 08:03:10;;;;;;;1.10;1.10;;;;;;;0.08;100.00;97244.91;4770934;30;20055;-83
2023/10/28 08:05:40;;;;;;;1.10;1.10;;;;;;;0.11;100.00;97244.47;4766226;30;20051;-83
2023/10/28 08:08:09;;;;;;;1.20;1.20;;;;;;;0.17;100.00;97240.91;4781449;30;20059;-92
2023/10/28 08:10:40;;;;;;;1.00;1.00;;;;;;;0.16;100.00;97238.50;4752531;29;20055;-83
2023/10/28 08:13:07;;;;;;;1.10;1.10;;;;;;;0.18;100.00;97231.13;4780466;29;20061;-84
2023/10/28 08:15:35;;;;;;;1.20;1.20;;;;;;;0.18;100.00;97225.81;4776378;29;20056;-83
2023/10/28 08:18:03;;;;;;;1.00;1.00;;;;;;;0.19;100.00;97219.47;4784137;29;20155;-83
2023/10/28 08:20:31;;;;;;;1.00;1.00;;;;;;;0.14;100.00;97225.44;4775592;29;20125;-84
2023/10/28 08:22:58;;;;;;;0.98;0.98;;;;;;;0.05;100.00;97218.00;4793302;29;20059;-85
2023/10/28 08:25:28;;;;;;;1.00;1.00;;;;;;;0.10;100.00;97218.13;4779098;29;20487;-84
2023/10/28 08:27:56;;;;;;;1.02;1.02;;;;;;;0.03;100.00;97212.94;4796067;29;20063;-83
2023/10/28 08:30:23;;;;;;;0.90;0.90;;;;;;;0.08;100.00;97209.63;4795524;29;20119;-84
2023/10/28 08:32:58;;;;;;;0.90;0.90;;;;;;;0.04;100.00;97206.59;4796015;29;20415;-87
2023/10/28 08:35:28;;;;;;;1.00;1.00;;;;;;;0.04;100.00;97211.09;4795686;29;20075;-87
2023/10/28 08:37:56;;;;;;;1.02;1.02;;;;;;;-0.06;100.00;97206.28;4778486;29;20073;-83
2023/10/28 08:40:26;;;;;;;0.90;0.90;;;;;;;-0.04;100.00;97213.00;4792127;29;20138;-82
2023/10/28 08:42:56;;;;;;;1.10;1.10;;;;;;;-0.08;100.00;97195.06;4785680;29;20063;-84
2023/10/28 08:45:29;;;;;;;1.00;1.00;;;;;;;-0.06;100.00;97196.47;4776343;29;20059;-84
2023/10/28 08:48:00;;;;;;;0.90;0.90;;;;;;;-0.12;100.00;97172.69;4786775;29;20063;-81
2023/10/28 08:50:33;;;;;;;1.02;1.02;;;;;;;-0.11;100.00;97172.47;4769940;29;20059;-83
2023/10/28 08:53:06;;;;;;;0.90;0.90;;;;;;;-0.20;100.00;97165.03;4757822;29;20055;-85
2023/10/28 09:02:54;;;;;;;1.00;1.00;;;;;;;-0.12;100.00;97173.50;4773319;30;20071;-83
2023/10/28 09:16:14;;;;;;;1.00;1.00;;;;;;;-0.32;100.00;97136.59;4010422;27;20238;-86
2023/10/28 09:18:57;;;;;;;0.90;0.90;;;;;;;-0.38;100.00;97128.72;4927693;24;20063;-87
2023/10/28 09:21:46;;;;;;;1.00;1.00;;;;;;;-0.31;100.00;97126.81;4765050;29;20058;-87
2023/10/28 09:25:07;;;;;;;1.00;1.00;;;;;;;-0.33;100.00;97118.25;4771330;30;20066;-86
2023/10/28 09:28:00;;;;;;;1.00;1.00;;;;;;;-0.23;100.00;97129.16;4764755;30;20055;-91
2023/10/28 09:33:31;;;;;;;1.00;1.00;;;;;;;-0.27;100.00;97118.19;4788832;29;20058;-87
2023/10/28 09:35:59;;;;;;;1.05;1.05;;;;;;;-0.33;100.00;97108.50;4795126;29;20166;-85
2023/10/28 09:38:26;;;;;;;1.02;1.02;;;;;;;-0.26;100.00;97113.69;4790838;29;20094;-87
2023/10/28 09:52:05;;;;;;;1.00;1.00;;;;;;;-0.44;100.00;97091.47;4759282;30;20064;-86
2023/10/28 09:54:43;;;;;;;1.00;1.00;;;;;;;-0.41;100.00;97092.84;4759392;30;20060;-85
2023/10/28 09:57:11;;;;;;;1.08;1.08;;;;;;;-0.37;100.00;97085.28;4761987;29;20155;-82
2023/10/28 09:59:44;;;;;;;1.00;1.00;;;;;;;-0.39;100.00;97071.44;4771748;29;20149;-86
2023/10/28 10:02:36;;;;;;;1.10;1.10;;;;;;;-0.35;100.00;97080.59;4766959;30;20066;-87
2023/10/28 10:05:22;;;;;;;1.10;1.10;;;;;;;-0.35;100.00;97069.97;4771020;30;20059;-86
2023/10/28 10:07:50;;;;;;;1.10;1.10;;;;;;;-0.37;100.00;97072.84;4797602;29;20073;-89
2023/10/28 10:10:47;;;;;;;0.93;0.93;;;;;;;-0.26;100.00;97068.63;4775872;30;20051;-89
2023/10/28 10:13:15;;;;;;;0.90;0.90;;;;;;;-0.38;100.00;97047.38;4767707;30;20048;-88
2023/10/28 10:16:19;;;;;;;1.10;1.10;;;;;;;-0.36;100.00;97049.78;4786736;30;20040;-88
2023/10/28 10:19:34;;;;;;;1.20;1.20;;;;;;;-0.27;100.00;97059.88;4785491;29;20052;-89
2023/10/28 10:22:27;;;;;;;1.00;1.00;;;;;;;-0.27;100.00;97051.13;4782605;30;20134;-87
2023/10/28 10:24:55;;;;;;;1.10;1.10;;;;;;;-0.28;100.00;97052.13;4738562;30;20547;-90
2023/10/28 10:27:40;;;;;;;1.00;1.00;;;;;;;-0.26;100.00;97055.38;4737250;30;20055;-85
2023/10/28 10:30:09;;;;;;;0.90;0.90;;;;;;;-0.35;100.00;97046.94;4762870;30;20060;-87
2023/10/28 10:32:41;;;;;;;1.00;1.00;;;;;;;-0.39;100.00;97050.25;4718890;30;20755;-87
2023/10/28 10:35:27;;;;;;;1.30;1.20;;;;;;;-0.39;100.00;97047.59;4752265;30;20052;-89
2023/10/28 10:38:06;;;;;;;1.08;1.08;;;;;;;-0.40;100.00;97048.63;4765566;30;20094;-84
2023/10/28 10:40:46;;;;;;;1.00;1.00;;;;;;;-0.33;100.00;97044.88;4754372;30;20067;-87
2023/10/28 10:43:18;;;;;;;1.10;1.10;;;;;;;-0.37;100.00;97040.22;4736377;30;20052;-85
2023/10/28 10:45:47;;;;;;;1.20;1.20;;;;;;;-0.35;100.00;97035.53;4757097;30;20667;-88
2023/10/28 10:48:16;;;;;;;1.02;1.02;;;;;;;-0.52;100.00;97027.34;4731984;30;20047;-85
2023/10/28 10:50:45;;;;;;;1.10;1.10;;;;;;;-0.53;100.00;97018.59;4735744;30;20055;-85
2023/10/28 10:53:13;;;;;;;1.10;1.10;;;;;;;-0.49;100.00;97014.47;4731753;30;20059;-84
2023/10/28 10:55:40;;;;;;;1.05;1.05;;;;;;;-0.48;100.00;97010.78;4762285;30;20143;-85
2023/10/28 10:58:07;;;;;;;1.00;1.00;;;;;;;-0.48;100.00;97008.16;4743335;30;20106;-85
2023/10/28 11:00:35;;;;;;;1.00;1.00;;;;;;;-0.51;100.00;96999.81;4743652;30;20252;-83
2023/10/28 11:03:03;;;;;;;1.10;1.10;;;;;;;-0.48;100.00;97002.00;4750376;30;20083;-83
2023/10/28 11:05:31;;;;;;;0.82;0.82;;;;;;;-0.50;100.00;96998.81;4752431;30;20052;-82
2023/10/28 11:07:58;;;;;;;0.90;0.90;;;;;;;-0.50;100.00;96994.31;4757032;30;20068;-84
2023/10/28 11:10:26;;;;;;;1.02;1.02;;;;;;;-0.53;100.00;96988.63;4754130;30;20049;-82
2023/10/28 11:12:54;;;;;;;1.00;1.00;;;;;;;-0.59;100.00;96985.03;4751037;30;21630;-86
2023/10/28 11:15:22;;;;;;;1.10;1.10;;;;;;;-0.59;100.00;96982.38;4752322;30;20056;-84
2023/10/28 11:17:52;;;;;;;1.05;1.05;;;;;;;-0.63;100.00;96981.22;4749982;30;20447;-85
2023/10/28 11:20:23;;;;;;;1.10;1.10;;;;;;;-0.62;100.00;96982.81;4740507;30;20059;-85
2023/10/28 11:22:55;;;;;;;1.10;1.10;;;;;;;-0.68;100.00;96976.59;4749398;30;20067;-86
2023/10/28 11:25:33;;;;;;;1.10;1.10;;;;;;;-0.63;100.00;96967.16;4754111;30;20456;-87
2023/10/28 11:28:10;;;;;;;1.10;1.10;;;;;;;-0.70;100.00;96964.59;4773232;30;20109;-85
2023/10/28 11:30:38;;;;;;;1.10;1.10;;;;;;;-0.75;100.00;96961.81;4740531;30;20086;-85
2023/10/28 11:33:07;;;;;;;1.00;1.00;;;;;;;-0.69;100.00;96966.19;4733470;30;20060;-86
2023/10/28 11:35:35;;;;;;;0.98;0.98;;;;;;;-0.62;100.00;96972.22;4754705;30;20057;-84
2023/10/28 11:38:03;;;;;;;1.08;1.08;;;;;;;-0.69;100.00;96966.19;4744816;30;20114;-85
2023/10/28 11:40:31;;;;;;;1.00;1.00;;;;;;;-0.60;100.00;96972.03;4742967;30;20045;-85
2023/10/28 11:43:14;;;;;;;1.10;1.10;;;;;;;-0.72;100.00;96950.75;4742655;30;20052;-85
2023/10/28 11:45:49;;;;;;;1.00;1.00;;;;;;;-0.64;100.00;96963.69;4742747;30;20056;-85
2023/10/28 11:48:16;;;;;;;1.00;1.00;;;;;;;-0.74;100.00;96947.50;4763192;30;20477;-85
2023/10/28 11:50:45;;;;;;;1.00;1.00;;;;;;;-0.71;100.00;96957.66;4711468;30;1377943;-86
2023/10/28 11:53:14;;;;;;;0.90;0.90;;;;;;;-0.71;100.00;96957.66;4757990;30;20053;-85
2023/10/28 11:55:42;;;;;;;1.00;1.00;;;;;;;-0.73;100.00;96943.84;4763602;30;20051;-84
2023/10/28 11:58:10;;;;;;;1.05;1.05;;;;;;;-0.79;100.00;96942.88;4764875;30;20218;-84
2023/10/28 12:00:37;;;;;;;1.00;1.00;;;;;;;-0.77;100.00;96942.66;4768945;30;20060;-85
2023/10/28 12:03:06;;;;;;;0.80;0.80;;;;;;;-0.78;100.00;96941.06;4774768;30;20059;-84
2023/10/28 12:05:34;;;;;;;1.05;1.05;;;;;;;-0.80;100.00;96937.81;4764724;30;20055;-85
2023/10/28 12:08:02;;;;;;;0.90;0.90;;;;;;;-0.77;100.00;96947.97;4750955;30;20183;-84
2023/10/28 12:10:30;;;;;;;1.00;1.00;;;;;;;-0.84;100.00;96937.44;4761374;30;20066;-84